Time;durP1;ratioP1;P1;durP2;ratioP2;P2;SDS_P1;SDS_P2;PMS_P1;PMS_P2;Temp;Humidity;BMP_temperature;BMP_pressure;BME280_temperature;BME280_humidity;BME280_pressure;Samples;Min_cycle;Max_cycle;Signal;HPM_P1;HPM_P2
2022/05/25 00:02:21;;;;;;;;;;;17.60;99.90;;;;;;2603032;54;20745;31
2022/05/25 00:04:57;;;;;;;;;;;17.60;99.90;;;;;;2602955;54;19941;31
2022/05/25 00:07:32;;;;;;;;;;;17.50;99.90;;;;;;2621156;47;19942;31
2022/05/25 00:10:08;;;;;;;;;;;17.50;99.90;;;;;;2621335;46;19946;31
2022/05/25 00:12:45;;;;;;;;;;;17.40;99.90;;;;;;2603109;54;19935;31
2022/05/25 00:15:22;;;;;;;;;;;17.40;99.90;;;;;;2621632;46;20752;31
2022/05/25 00:18:02;;;;;;;;;;;17.40;99.90;;;;;;2603251;54;20729;31
2022/05/25 00:20:35;;;;;;;;;;;17.40;99.90;;;;;;2602278;54;19941;31
2022/05/25 00:23:09;;;;;;;;;;;17.30;99.90;;;;;;2621529;46;19990;31
2022/05/25 00:25:45;;;;;;;;;;;17.30;99.90;;;;;;2621448;47;20014;31
2022/05/25 00:28:22;;;;;;;;;;;17.20;99.90;;;;;;2602843;54;19935;31
2022/05/25 00:31:00;;;;;;;;;;;17.20;99.90;;;;;;2621492;47;19934;31
2022/05/25 00:33:37;;;;;;;;;;;17.20;99.90;;;;;;2603124;54;20417;31
2022/05/25 00:36:11;;;;;;;;;;;17.20;99.90;;;;;;2602902;54;19934;31
2022/05/25 00:38:47;;;;;;;;;;;17.10;99.90;;;;;;2621458;47;20512;31
2022/05/25 00:41:25;;;;;;;;;;;17.10;99.90;;;;;;2720198;39;20441;31
2022/05/25 00:43:59;;;;;;;;;;;17.00;99.90;;;;;;2603026;54;20795;31
2022/05/25 00:46:36;;;;;;;;;;;17.00;99.90;;;;;;2602830;54;19946;31
2022/05/25 00:49:16;;;;;;;;;;;17.00;99.90;;;;;;2621548;47;19935;31
2022/05/25 00:51:51;;;;;;;;;;;17.00;99.90;;;;;;2602933;54;19934;31
2022/05/25 00:54:26;;;;;;;;;;;17.00;99.90;;;;;;2602176;54;19949;31
2022/05/25 00:57:03;;;;;;;;;;;17.00;99.90;;;;;;2621184;47;19942;31
2022/05/25 00:59:39;;;;;;;;;;;16.90;99.90;;;;;;2621527;47;20734;31
2022/05/25 01:02:13;;;;;;;;;;;16.90;99.90;;;;;;2621083;47;20670;31
2022/05/25 01:04:52;;;;;;;;;;;16.90;99.90;;;;;;2620514;47;20047;31
2022/05/25 01:07:29;;;;;;;;;;;16.90;99.90;;;;;;2602810;54;19986;31
2022/05/25 01:10:06;;;;;;;;;;;16.90;99.90;;;;;;2621440;47;21386;31
2022/05/25 01:12:45;;;;;;;;;;;16.80;99.90;;;;;;2603064;54;19941;31
2022/05/25 01:15:20;;;;;;;;;;;16.80;99.90;;;;;;2602840;54;19961;31
2022/05/25 01:17:59;;;;;;;;;;;16.80;99.90;;;;;;2621856;47;19949;31
2022/05/25 01:20:37;;;;;;;;;;;16.70;99.90;;;;;;2603582;54;20013;31
2022/05/25 01:23:26;;;;;;;;;;;16.70;99.90;;;;;;2603593;54;19942;31
2022/05/25 01:26:06;;;;;;;;;;;16.70;99.90;;;;;;2603461;54;19934;31
2022/05/25 01:28:42;;;;;;;;;;;16.70;99.90;;;;;;2609354;46;20761;31
2022/05/25 01:31:20;;;;;;;;;;;16.70;99.90;;;;;;2603698;54;19942;31
2022/05/25 01:34:01;;;;;;;;;;;16.70;99.90;;;;;;2603628;54;20697;31
2022/05/25 01:36:37;;;;;;;;;;;16.70;99.90;;;;;;2622145;46;19989;31
2022/05/25 01:39:10;;;;;;;;;;;16.70;99.90;;;;;;2603511;54;22137;31
2022/05/25 01:41:45;;;;;;;;;;;16.70;99.90;;;;;;2603408;54;20869;31
2022/05/25 01:44:21;;;;;;;;;;;16.70;99.90;;;;;;2603710;54;19935;31
2022/05/25 01:46:58;;;;;;;;;;;16.70;99.90;;;;;;2622333;46;20750;31
2022/05/25 01:49:36;;;;;;;;;;;16.70;99.90;;;;;;2622095;46;19935;31
2022/05/25 01:52:09;;;;;;;;;;;16.60;99.90;;;;;;2621876;46;22283;31
2022/05/25 01:54:45;;;;;;;;;;;16.60;99.90;;;;;;2603562;54;20709;31
2022/05/25 01:57:20;;;;;;;;;;;16.60;99.90;;;;;;2603452;54;19935;31
2022/05/25 01:59:55;;;;;;;;;;;16.60;99.90;;;;;;2603506;54;19934;31
2022/05/25 02:05:10;;;;;;;;;;;16.60;99.90;;;;;;2603514;54;19946;31
2022/05/25 02:07:48;;;;;;;;;;;16.60;99.90;;;;;;2602661;54;20001;31
2022/05/25 02:10:32;;;;;;;;;;;16.60;99.90;;;;;;2612529;46;19935;31
2022/05/25 02:13:30;;;;;;;;;;;16.60;99.90;;;;;;2603280;54;19958;31
2022/05/25 02:16:09;;;;;;;;;;;16.60;99.90;;;;;;2621617;46;19935;31
2022/05/25 02:18:44;;;;;;;;;;;16.60;99.90;;;;;;2603308;54;20490;31
2022/05/25 02:21:20;;;;;;;;;;;16.60;99.90;;;;;;2603362;54;22316;31
2022/05/25 02:24:00;;;;;;;;;;;16.50;99.90;;;;;;2607214;46;19942;31
2022/05/25 02:26:35;;;;;;;;;;;16.50;99.90;;;;;;2603764;54;20753;31
2022/05/25 02:29:10;;;;;;;;;;;16.50;99.90;;;;;;2700886;39;21408;31
2022/05/25 02:31:46;;;;;;;;;;;16.50;99.90;;;;;;2603288;54;20792;31
2022/05/25 02:34:21;;;;;;;;;;;16.50;99.90;;;;;;2603602;54;19934;31
2022/05/25 02:36:58;;;;;;;;;;;16.50;99.90;;;;;;2622093;46;20744;31
2022/05/25 02:39:33;;;;;;;;;;;16.50;99.90;;;;;;2603590;54;20727;31
2022/05/25 02:42:14;;;;;;;;;;;16.50;99.90;;;;;;2621721;46;19935;31
2022/05/25 02:44:49;;;;;;;;;;;16.50;99.90;;;;;;2622098;46;20752;31
2022/05/25 02:47:28;;;;;;;;;;;16.50;99.90;;;;;;2621825;46;19934;31
2022/05/25 02:50:02;;;;;;;;;;;16.50;99.90;;;;;;2621744;46;19942;31
2022/05/25 02:52:40;;;;;;;;;;;16.50;99.90;;;;;;2603208;54;20843;31
2022/05/25 02:55:15;;;;;;;;;;;16.50;99.90;;;;;;2603130;54;19938;31
2022/05/25 02:57:49;;;;;;;;;;;16.50;99.90;;;;;;2622228;46;20662;31
2022/05/25 03:00:24;;;;;;;;;;;16.50;99.90;;;;;;2603206;54;19934;31
2022/05/25 03:03:01;;;;;;;;;;;16.50;99.90;;;;;;2603015;54;19942;31
2022/05/25 03:05:36;;;;;;;;;;;16.50;99.90;;;;;;2602449;54;19988;31
2022/05/25 03:08:13;;;;;;;;;;;16.40;99.90;;;;;;2602584;54;19941;31
2022/05/25 03:10:53;;;;;;;;;;;16.40;99.90;;;;;;2622002;46;19934;31
2022/05/25 03:13:27;;;;;;;;;;;16.40;99.90;;;;;;2603107;54;20709;31
2022/05/25 03:16:01;;;;;;;;;;;16.40;99.90;;;;;;2622002;46;20737;31
2022/05/25 03:18:37;;;;;;;;;;;16.30;99.90;;;;;;2621865;46;20770;31
2022/05/25 03:21:11;;;;;;;;;;;16.30;99.90;;;;;;2621915;46;20824;31
2022/05/25 03:23:46;;;;;;;;;;;16.30;99.90;;;;;;2603135;54;20797;31
2022/05/25 03:26:24;;;;;;;;;;;16.30;99.90;;;;;;2603153;54;19960;31
2022/05/25 03:29:01;;;;;;;;;;;16.30;99.90;;;;;;2621659;46;20665;31
2022/05/25 03:31:40;;;;;;;;;;;16.30;99.90;;;;;;2621539;46;19981;31
2022/05/25 03:34:15;;;;;;;;;;;16.30;99.90;;;;;;2621270;46;19950;31
2022/05/25 03:36:53;;;;;;;;;;;16.30;99.90;;;;;;2619927;46;19943;31
2022/05/25 03:39:28;;;;;;;;;;;16.20;99.90;;;;;;2602040;54;20789;31
2022/05/25 03:42:04;;;;;;;;;;;16.20;99.90;;;;;;2602918;54;20765;31
2022/05/25 03:44:40;;;;;;;;;;;16.20;99.90;;;;;;2602998;54;20014;31
2022/05/25 03:47:18;;;;;;;;;;;16.20;99.90;;;;;;2626128;39;22131;31
2022/05/25 03:49:53;;;;;;;;;;;16.20;99.90;;;;;;2621488;46;19960;31
2022/05/25 03:52:28;;;;;;;;;;;16.20;99.90;;;;;;2621514;46;20658;31
2022/05/25 03:55:05;;;;;;;;;;;16.20;99.90;;;;;;2603106;54;19934;31
2022/05/25 03:57:39;;;;;;;;;;;16.20;99.90;;;;;;2603033;54;20303;31
2022/05/25 04:00:15;;;;;;;;;;;16.20;99.90;;;;;;2621490;46;20781;31
2022/05/25 04:03:02;;;;;;;;;;;16.20;99.90;;;;;;2602897;54;19942;31
2022/05/25 04:05:37;;;;;;;;;;;16.20;99.90;;;;;;2621334;46;19974;31
2022/05/25 04:08:12;;;;;;;;;;;16.20;99.90;;;;;;2602725;54;20338;31
2022/05/25 04:10:46;;;;;;;;;;;16.20;99.90;;;;;;2602301;54;20749;31
2022/05/25 04:13:22;;;;;;;;;;;16.20;99.90;;;;;;2602089;54;19949;31
2022/05/25 04:15:56;;;;;;;;;;;16.20;99.90;;;;;;2621467;46;20778;31
2022/05/25 04:18:35;;;;;;;;;;;16.20;99.90;;;;;;2649922;39;21093;31
2022/05/25 04:21:10;;;;;;;;;;;16.20;99.90;;;;;;2621334;46;20714;31
2022/05/25 04:23:44;;;;;;;;;;;16.20;99.90;;;;;;2602853;54;20335;31
2022/05/25 04:26:18;;;;;;;;;;;16.20;99.90;;;;;;2618953;46;20766;31
2022/05/25 04:28:58;;;;;;;;;;;16.20;99.90;;;;;;2619020;47;19958;31
2022/05/25 04:31:33;;;;;;;;;;;16.20;99.90;;;;;;2611827;47;20013;31
2022/05/25 04:34:13;;;;;;;;;;;16.20;99.90;;;;;;2602608;54;19997;31
2022/05/25 04:36:51;;;;;;;;;;;16.20;99.90;;;;;;2620909;47;19991;31
2022/05/25 04:39:28;;;;;;;;;;;16.20;99.90;;;;;;2601858;54;20756;31
2022/05/25 04:42:02;;;;;;;;;;;16.20;99.90;;;;;;2621414;47;20030;31
2022/05/25 04:44:38;;;;;;;;;;;16.20;99.90;;;;;;2621343;47;19935;31
2022/05/25 04:47:12;;;;;;;;;;;16.20;99.90;;;;;;2602835;54;19941;31
2022/05/25 04:49:50;;;;;;;;;;;16.20;99.90;;;;;;2621407;47;19969;31
2022/05/25 04:52:31;;;;;;;;;;;16.20;99.90;;;;;;2603264;54;19935;31
2022/05/25 04:55:09;;;;;;;;;;;16.30;99.90;;;;;;2602879;54;20312;31
2022/05/25 04:57:43;;;;;;;;;;;16.30;99.90;;;;;;2622048;46;19934;31
2022/05/25 05:00:19;;;;;;;;;;;16.30;99.90;;;;;;2621981;46;20785;31
2022/05/25 05:02:53;;;;;;;;;;;16.40;99.90;;;;;;2621706;46;19947;31
2022/05/25 05:05:27;;;;;;;;;;;16.30;99.90;;;;;;2621878;46;20331;31
2022/05/25 05:08:03;;;;;;;;;;;16.30;99.90;;;;;;2603469;54;20769;31
2022/05/25 05:10:41;;;;;;;;;;;16.30;99.90;;;;;;2603535;54;20033;31
2022/05/25 05:13:18;;;;;;;;;;;16.30;99.90;;;;;;2621747;46;19951;31
2022/05/25 05:15:54;;;;;;;;;;;16.30;99.90;;;;;;2603671;54;20826;31
2022/05/25 05:18:29;;;;;;;;;;;16.30;99.90;;;;;;2603789;54;20791;31
2022/05/25 05:21:38;;;;;;;;;;;16.20;99.90;;;;;;2603157;54;19935;31
2022/05/25 05:24:12;;;;;;;;;;;16.30;99.90;;;;;;2602804;54;19961;31
2022/05/25 05:26:47;;;;;;;;;;;16.30;99.90;;;;;;2603483;54;19941;31
2022/05/25 05:29:24;;;;;;;;;;;16.30;99.90;;;;;;2603377;54;19935;31
2022/05/25 05:31:58;;;;;;;;;;;16.20;99.90;;;;;;2622013;46;20006;31
2022/05/25 05:34:33;;;;;;;;;;;16.30;99.90;;;;;;2603469;54;19993;31
2022/05/25 05:37:07;;;;;;;;;;;16.30;99.90;;;;;;2603544;54;20751;31
2022/05/25 05:39:50;;;;;;;;;;;16.30;99.90;;;;;;2603228;54;20796;31
2022/05/25 05:42:26;;;;;;;;;;;16.30;99.90;;;;;;2701876;39;20162;31
2022/05/25 05:45:06;;;;;;;;;;;16.20;99.90;;;;;;2603374;54;20350;31
2022/05/25 05:47:44;;;;;;;;;;;16.20;99.90;;;;;;2603564;54;20723;31
2022/05/25 05:50:19;;;;;;;;;;;16.30;99.90;;;;;;2622232;46;20754;31
2022/05/25 05:52:58;;;;;;;;;;;16.40;99.90;;;;;;2603257;54;20754;31
2022/05/25 05:55:32;;;;;;;;;;;16.50;99.90;;;;;;2602897;54;20013;31
2022/05/25 05:58:10;;;;;;;;;;;16.50;99.90;;;;;;2621814;46;19942;31
2022/05/25 06:00:47;;;;;;;;;;;16.50;99.90;;;;;;2603399;54;20729;31
2022/05/25 06:03:20;;;;;;;;;;;16.50;99.90;;;;;;2621446;46;19961;31
2022/05/25 06:05:55;;;;;;;;;;;16.50;99.90;;;;;;2621876;46;20728;31
2022/05/25 06:08:32;;;;;;;;;;;16.50;99.90;;;;;;2603069;54;19998;31
2022/05/25 06:11:07;;;;;;;;;;;16.50;99.90;;;;;;2603322;54;20778;31
2022/05/25 06:13:44;;;;;;;;;;;16.50;99.90;;;;;;2621827;46;20748;31
2022/05/25 06:21:58;;;;;;;;;;;16.60;99.90;;;;;;2603217;54;19942;31
2022/05/25 06:24:35;;;;;;;;;;;16.70;99.90;;;;;;2621652;46;20816;31
2022/05/25 06:27:11;;;;;;;;;;;16.70;99.90;;;;;;2602426;54;19949;31
2022/05/25 06:29:47;;;;;;;;;;;16.70;99.90;;;;;;2601888;54;19946;31
2022/05/25 06:32:27;;;;;;;;;;;16.60;99.90;;;;;;2603323;54;19958;31
2022/05/25 06:35:04;;;;;;;;;;;16.60;99.90;;;;;;2603479;54;19939;31
2022/05/25 06:37:39;;;;;;;;;;;16.50;99.90;;;;;;2603246;54;20762;31
2022/05/25 06:40:14;;;;;;;;;;;16.40;99.90;;;;;;2621739;46;19950;31
2022/05/25 06:42:48;;;;;;;;;;;16.30;99.90;;;;;;2602463;54;20004;31
2022/05/25 06:45:23;;;;;;;;;;;16.30;99.90;;;;;;2603308;54;20735;31
2022/05/25 06:48:02;;;;;;;;;;;16.30;99.90;;;;;;2620042;46;19989;31
2022/05/25 06:50:36;;;;;;;;;;;16.20;99.90;;;;;;2603330;54;20647;31
2022/05/25 06:53:10;;;;;;;;;;;16.20;99.90;;;;;;2621893;46;20692;31
2022/05/25 06:55:45;;;;;;;;;;;16.20;99.90;;;;;;2603310;54;19934;31
2022/05/25 06:58:21;;;;;;;;;;;16.10;99.90;;;;;;2621938;46;19962;31
2022/05/25 07:00:59;;;;;;;;;;;16.10;99.90;;;;;;2602174;54;20012;31
2022/05/25 07:03:38;;;;;;;;;;;16.10;99.90;;;;;;2603191;54;20069;31
2022/05/25 07:06:13;;;;;;;;;;;16.00;99.90;;;;;;2603403;54;20740;31
2022/05/25 07:08:48;;;;;;;;;;;16.00;99.90;;;;;;2603094;54;19947;31
2022/05/25 07:11:25;;;;;;;;;;;16.00;99.90;;;;;;2620858;46;19946;31
2022/05/25 07:14:01;;;;;;;;;;;16.00;99.90;;;;;;2603262;54;20668;31
2022/05/25 07:16:39;;;;;;;;;;;16.00;99.90;;;;;;2621536;46;20781;31
2022/05/25 07:19:16;;;;;;;;;;;16.00;99.90;;;;;;2603090;54;19954;31
2022/05/25 07:21:53;;;;;;;;;;;16.00;99.90;;;;;;2603248;54;20688;31
2022/05/25 07:24:28;;;;;;;;;;;16.10;99.90;;;;;;2621310;46;19942;31
2022/05/25 07:27:02;;;;;;;;;;;16.00;99.90;;;;;;2603162;54;20319;31
2022/05/25 07:29:40;;;;;;;;;;;16.10;99.90;;;;;;2621297;46;20794;31
2022/05/25 07:32:15;;;;;;;;;;;16.10;99.90;;;;;;2602192;54;19935;31
2022/05/25 07:34:54;;;;;;;;;;;16.10;99.90;;;;;;2701379;39;22132;31
2022/05/25 07:37:41;;;;;;;;;;;16.10;99.90;;;;;;2603122;54;20027;31
2022/05/25 07:40:18;;;;;;;;;;;16.10;99.90;;;;;;2602675;54;21296;31
2022/05/25 07:42:55;;;;;;;;;;;16.10;99.90;;;;;;2614643;46;21014;31
2022/05/25 07:45:32;;;;;;;;;;;16.10;99.90;;;;;;2621452;46;20362;31
2022/05/25 07:48:08;;;;;;;;;;;16.10;99.90;;;;;;2602143;54;21083;31
2022/05/25 07:50:43;;;;;;;;;;;16.00;99.90;;;;;;2602695;54;19941;31
2022/05/25 07:56:09;;;;;;;;;;;15.90;99.90;;;;;;2603239;54;19942;31
2022/05/25 07:58:43;;;;;;;;;;;15.80;99.90;;;;;;2603197;54;19962;31
2022/05/25 08:01:18;;;;;;;;;;;15.80;99.90;;;;;;2603077;54;20077;31
2022/05/25 08:06:42;;;;;;;;;;;15.70;99.90;;;;;;2621074;46;19935;31
2022/05/25 08:09:20;;;;;;;;;;;15.70;99.90;;;;;;2621443;46;20729;31
2022/05/25 08:11:55;;;;;;;;;;;15.70;99.90;;;;;;2602866;54;19958;31
2022/05/25 08:14:32;;;;;;;;;;;15.60;99.90;;;;;;2621460;46;19935;31
2022/05/25 08:17:06;;;;;;;;;;;15.60;99.90;;;;;;2602011;54;20053;31
2022/05/25 08:19:43;;;;;;;;;;;15.60;99.90;;;;;;2602570;54;20347;31
2022/05/25 08:22:18;;;;;;;;;;;15.60;99.90;;;;;;2602818;54;20785;31
2022/05/25 08:24:56;;;;;;;;;;;15.50;99.90;;;;;;2621266;46;19939;31
2022/05/25 08:27:32;;;;;;;;;;;15.40;99.90;;;;;;2614265;47;20028;31
2022/05/25 08:30:09;;;;;;;;;;;15.50;99.90;;;;;;2604538;54;20764;31
2022/05/25 08:32:44;;;;;;;;;;;15.40;99.90;;;;;;2604542;54;20782;31
2022/05/25 08:35:23;;;;;;;;;;;15.40;99.90;;;;;;2711097;39;20297;31
2022/05/25 08:37:57;;;;;;;;;;;15.40;99.90;;;;;;2604912;54;19935;31
2022/05/25 08:40:36;;;;;;;;;;;15.40;99.90;;;;;;2604424;54;19993;31
2022/05/25 08:43:18;;;;;;;;;;;15.30;99.90;;;;;;2623240;46;19956;31
2022/05/25 08:45:54;;;;;;;;;;;15.30;99.90;;;;;;2613444;46;19942;31
2022/05/25 08:48:28;;;;;;;;;;;15.30;99.90;;;;;;2603767;54;19950;31
2022/05/25 08:51:04;;;;;;;;;;;15.30;99.90;;;;;;2702536;39;21304;31
2022/05/25 08:53:41;;;;;;;;;;;15.30;99.90;;;;;;2623216;46;19953;31
2022/05/25 08:56:22;;;;;;;;;;;15.30;99.90;;;;;;2623084;46;20662;31
2022/05/25 08:59:00;;;;;;;;;;;15.40;99.90;;;;;;2604286;54;20651;31
2022/05/25 09:01:35;;;;;;;;;;;15.40;99.90;;;;;;2616974;46;20769;31
2022/05/25 09:04:12;;;;;;;;;;;15.50;99.90;;;;;;2604624;54;19962;31
2022/05/25 09:06:51;;;;;;;;;;;15.50;99.90;;;;;;2604472;54;19935;31
2022/05/25 09:09:27;;;;;;;;;;;15.50;99.90;;;;;;2604504;54;20659;31
2022/05/25 09:12:05;;;;;;;;;;;15.60;99.90;;;;;;2623320;46;20816;31
2022/05/25 09:14:40;;;;;;;;;;;15.70;99.90;;;;;;2604452;54;20008;31
2022/05/25 09:17:20;;;;;;;;;;;15.70;99.90;;;;;;2721490;39;20214;31
2022/05/25 09:19:54;;;;;;;;;;;15.80;99.90;;;;;;2604643;54;20748;31
2022/05/25 09:22:31;;;;;;;;;;;15.90;99.90;;;;;;2604566;54;20745;31
2022/05/25 09:25:10;;;;;;;;;;;16.00;99.90;;;;;;2604404;54;20013;31
2022/05/25 09:27:49;;;;;;;;;;;16.10;99.90;;;;;;2604432;54;19989;31
2022/05/25 09:30:23;;;;;;;;;;;16.20;99.90;;;;;;2702582;39;21273;31
2022/05/25 09:33:01;;;;;;;;;;;16.30;99.90;;;;;;2622777;46;20667;31
2022/05/25 09:35:37;;;;;;;;;;;16.40;99.90;;;;;;2604371;54;20659;31
2022/05/25 09:38:14;;;;;;;;;;;16.40;99.90;;;;;;2604232;54;19941;31
2022/05/25 09:40:53;;;;;;;;;;;16.50;99.90;;;;;;2602872;54;20396;31
2022/05/25 09:43:34;;;;;;;;;;;16.60;99.90;;;;;;2603394;54;19946;31
2022/05/25 09:46:12;;;;;;;;;;;16.60;99.90;;;;;;2602630;54;19938;31
2022/05/25 09:48:49;;;;;;;;;;;16.60;99.90;;;;;;2603475;54;20741;31
2022/05/25 09:51:25;;;;;;;;;;;16.70;99.90;;;;;;2603314;54;19938;31
2022/05/25 09:54:08;;;;;;;;;;;16.70;99.90;;;;;;2622276;46;20756;31
2022/05/25 09:56:46;;;;;;;;;;;16.80;99.90;;;;;;2621870;46;19993;31
2022/05/25 09:59:26;;;;;;;;;;;16.80;99.90;;;;;;2603657;54;19946;31
2022/05/25 10:01:59;;;;;;;;;;;16.90;99.90;;;;;;2603488;54;19993;31
2022/05/25 10:04:37;;;;;;;;;;;16.90;99.90;;;;;;2603741;54;19935;31
2022/05/25 10:07:18;;;;;;;;;;;16.90;99.90;;;;;;2622076;46;20673;31
2022/05/25 10:09:55;;;;;;;;;;;16.90;99.90;;;;;;2602729;54;19934;31
2022/05/25 10:12:32;;;;;;;;;;;16.90;99.90;;;;;;2621963;46;20741;31
2022/05/25 10:15:12;;;;;;;;;;;16.90;99.90;;;;;;2603480;54;19997;31
2022/05/25 10:17:49;;;;;;;;;;;16.90;99.90;;;;;;2603446;54;20794;31
2022/05/25 10:20:27;;;;;;;;;;;16.90;99.90;;;;;;2602664;54;20021;31
2022/05/25 10:23:07;;;;;;;;;;;16.90;99.90;;;;;;2617442;46;20864;31
2022/05/25 10:25:44;;;;;;;;;;;16.90;99.90;;;;;;2603750;54;19957;31
2022/05/25 10:28:23;;;;;;;;;;;16.90;99.90;;;;;;2621777;46;20765;31
2022/05/25 10:36:56;;;;;;;;;;;17.00;99.90;;;;;;2603230;54;20673;31
2022/05/25 10:39:35;;;;;;;;;;;17.10;99.90;;;;;;2621942;46;19942;31
2022/05/25 10:42:12;;;;;;;;;;;17.10;99.90;;;;;;2603241;54;19934;31
2022/05/25 10:44:58;;;;;;;;;;;17.20;99.90;;;;;;2621956;46;19949;31
2022/05/25 10:47:37;;;;;;;;;;;17.20;99.90;;;;;;2622309;46;20823;31
2022/05/25 10:50:16;;;;;;;;;;;17.30;99.90;;;;;;2609823;46;20001;31
2022/05/25 10:52:51;;;;;;;;;;;17.40;99.90;;;;;;2602619;54;20752;31
2022/05/25 10:55:27;;;;;;;;;;;17.40;99.90;;;;;;2602514;54;20677;31
2022/05/25 10:58:11;;;;;;;;;;;17.50;99.90;;;;;;2603500;54;20014;31
2022/05/25 11:00:48;;;;;;;;;;;17.60;99.90;;;;;;2603447;54;20723;31
2022/05/25 11:03:26;;;;;;;;;;;17.80;99.90;;;;;;2603251;54;19934;31
2022/05/25 11:06:05;;;;;;;;;;;17.90;99.90;;;;;;2621775;46;19942;31
2022/05/25 11:08:44;;;;;;;;;;;18.10;99.90;;;;;;2602679;54;20760;31
2022/05/25 11:11:20;;;;;;;;;;;18.20;99.90;;;;;;2613517;46;19935;31
2022/05/25 11:14:00;;;;;;;;;;;18.40;99.90;;;;;;2602565;54;20666;31
2022/05/25 11:16:37;;;;;;;;;;;18.60;99.90;;;;;;2615237;46;19942;31
2022/05/25 11:19:18;;;;;;;;;;;18.60;99.90;;;;;;2603232;54;20721;31
2022/05/25 11:21:58;;;;;;;;;;;18.70;99.90;;;;;;2621820;46;20771;31
2022/05/25 11:24:36;;;;;;;;;;;18.60;99.90;;;;;;2603257;54;19938;31
2022/05/25 11:27:15;;;;;;;;;;;18.60;99.90;;;;;;2603207;54;20004;31
2022/05/25 11:30:10;;;;;;;;;;;18.50;99.90;;;;;;2603261;54;19934;31
2022/05/25 11:32:47;;;;;;;;;;;18.50;99.90;;;;;;2602907;54;19946;31
2022/05/25 11:35:27;;;;;;;;;;;18.50;99.90;;;;;;2720588;39;21288;31
2022/05/25 11:38:11;;;;;;;;;;;18.50;99.90;;;;;;2603274;54;20658;31
2022/05/25 11:40:47;;;;;;;;;;;18.50;99.90;;;;;;2603162;54;21305;31
2022/05/25 11:43:28;;;;;;;;;;;18.50;99.90;;;;;;2621584;46;20490;31
2022/05/25 11:46:05;;;;;;;;;;;18.50;99.90;;;;;;2603083;54;19934;31
2022/05/25 11:49:02;;;;;;;;;;;18.50;99.90;;;;;;2621718;46;19981;31
2022/05/25 11:51:41;;;;;;;;;;;18.60;99.90;;;;;;2621762;46;19986;31
2022/05/25 11:54:18;;;;;;;;;;;18.50;99.90;;;;;;2621670;46;19981;31
2022/05/25 11:57:02;;;;;;;;;;;18.50;99.90;;;;;;2701491;39;21260;31
2022/05/25 11:59:54;;;;;;;;;;;18.50;99.90;;;;;;2621764;46;20698;31
2022/05/25 12:02:36;;;;;;;;;;;18.50;99.90;;;;;;2621577;46;20759;31
2022/05/25 12:05:13;;;;;;;;;;;18.50;99.90;;;;;;2621373;46;20013;31
2022/05/25 12:07:55;;;;;;;;;;;18.50;99.90;;;;;;2621493;46;19934;31
2022/05/25 12:10:32;;;;;;;;;;;18.40;99.90;;;;;;2602903;54;21337;31
2022/05/25 12:13:12;;;;;;;;;;;18.30;99.90;;;;;;2603161;54;20722;31
2022/05/25 12:15:49;;;;;;;;;;;18.30;99.90;;;;;;2603077;54;19985;31
2022/05/25 12:18:26;;;;;;;;;;;18.30;99.90;;;;;;2621467;46;19935;31
2022/05/25 12:21:02;;;;;;;;;;;18.30;99.90;;;;;;2603211;54;19941;31
2022/05/25 12:23:37;;;;;;;;;;;18.30;99.90;;;;;;2621690;46;20730;31
2022/05/25 12:26:14;;;;;;;;;;;18.40;99.90;;;;;;2602898;54;19938;31
2022/05/25 12:28:53;;;;;;;;;;;18.40;99.90;;;;;;2621644;46;20724;31
2022/05/25 12:31:29;;;;;;;;;;;18.40;99.90;;;;;;2603085;54;19942;31
2022/05/25 12:34:04;;;;;;;;;;;18.40;99.90;;;;;;2602891;54;19935;31
2022/05/25 12:36:42;;;;;;;;;;;18.40;99.90;;;;;;2621409;47;20036;31
2022/05/25 12:39:17;;;;;;;;;;;18.40;99.90;;;;;;2611937;47;19942;31
2022/05/25 12:41:53;;;;;;;;;;;18.40;99.90;;;;;;2601968;54;19962;31
2022/05/25 12:50:37;;;;;;;;;;;18.40;99.90;;;;;;2602943;54;20673;31
2022/05/25 12:53:15;;;;;;;;;;;18.30;99.90;;;;;;2602867;54;19938;31
2022/05/25 12:56:20;;;;;;;;;;;18.30;99.90;;;;;;2602972;54;19941;31
2022/05/25 12:58:55;;;;;;;;;;;18.30;99.90;;;;;;2602522;54;19946;31
2022/05/25 13:01:34;;;;;;;;;;;18.20;99.90;;;;;;2616157;47;20009;31
2022/05/25 13:04:20;;;;;;;;;;;18.20;99.90;;;;;;2621520;47;20756;31
2022/05/25 13:06:57;;;;;;;;;;;18.30;99.90;;;;;;2602998;54;20005;31
2022/05/25 13:09:39;;;;;;;;;;;18.30;99.90;;;;;;2602889;54;20724;31
2022/05/25 13:12:28;;;;;;;;;;;18.30;99.90;;;;;;2602942;54;20741;31
2022/05/25 13:15:02;;;;;;;;;;;18.40;99.90;;;;;;2603558;54;19947;31
2022/05/25 13:17:47;;;;;;;;;;;18.40;99.90;;;;;;2622328;46;20762;31
2022/05/25 13:20:46;;;;;;;;;;;18.40;99.90;;;;;;2621995;46;19941;31
2022/05/25 13:23:36;;;;;;;;;;;18.40;99.90;;;;;;2603704;54;19934;31
2022/05/25 13:26:14;;;;;;;;;;;18.40;99.90;;;;;;2603374;54;19935;31
2022/05/25 13:28:49;;;;;;;;;;;18.40;99.90;;;;;;2603610;54;20782;31
2022/05/25 13:31:26;;;;;;;;;;;18.40;99.90;;;;;;2603377;54;19949;31
2022/05/25 13:34:00;;;;;;;;;;;18.40;99.90;;;;;;2603498;54;19941;31
2022/05/25 13:36:35;;;;;;;;;;;18.30;99.90;;;;;;2603540;54;20674;31
2022/05/25 13:39:10;;;;;;;;;;;18.30;99.90;;;;;;2603176;54;19984;31
2022/05/25 13:41:49;;;;;;;;;;;18.30;99.90;;;;;;2603133;54;19934;31
2022/05/25 13:44:25;;;;;;;;;;;18.30;99.90;;;;;;2608990;46;19941;31
2022/05/25 13:47:00;;;;;;;;;;;18.20;99.90;;;;;;2603375;54;19960;31
2022/05/25 13:49:36;;;;;;;;;;;18.20;99.90;;;;;;2621968;46;19934;31
2022/05/25 13:52:11;;;;;;;;;;;18.20;99.90;;;;;;2621922;46;19934;31
2022/05/25 13:54:46;;;;;;;;;;;18.10;99.90;;;;;;2603618;54;20773;31
2022/05/25 13:57:39;;;;;;;;;;;18.10;99.90;;;;;;2603667;54;20659;31
2022/05/25 14:00:20;;;;;;;;;;;18.10;99.90;;;;;;2621713;46;20858;31
2022/05/25 14:02:56;;;;;;;;;;;18.00;99.90;;;;;;2603670;54;19947;31
2022/05/25 14:05:53;;;;;;;;;;;18.00;99.90;;;;;;2603541;54;20677;31
2022/05/25 14:10:54;;;;;;;;;;;18.00;99.90;;;;;;2622052;46;19934;31
2022/05/25 14:11:23;;;;;;;;;;;18.00;99.90;;;;;;2603151;54;19953;31
2022/05/25 14:13:58;;;;;;;;;;;18.00;99.90;;;;;;2603371;54;20725;31
2022/05/25 14:16:36;;;;;;;;;;;18.00;99.90;;;;;;2603652;54;19960;31
2022/05/25 14:19:13;;;;;;;;;;;18.00;99.90;;;;;;2622137;46;19934;31
2022/05/25 14:21:49;;;;;;;;;;;18.10;99.90;;;;;;2621822;46;19935;31
2022/05/25 14:24:25;;;;;;;;;;;18.10;99.90;;;;;;2616814;46;19946;31
2022/05/25 14:27:00;;;;;;;;;;;18.10;99.90;;;;;;2603537;54;19997;31
2022/05/25 14:29:35;;;;;;;;;;;18.10;99.90;;;;;;2617687;46;20710;31
2022/05/25 14:32:17;;;;;;;;;;;18.10;99.90;;;;;;2621860;46;20727;31
2022/05/25 14:34:55;;;;;;;;;;;18.10;99.90;;;;;;2603375;54;19958;31
2022/05/25 14:37:31;;;;;;;;;;;18.20;99.90;;;;;;2603212;54;20017;31
2022/05/25 14:40:07;;;;;;;;;;;18.20;99.90;;;;;;2603144;54;19941;31
2022/05/25 14:42:52;;;;;;;;;;;18.20;99.90;;;;;;2621504;46;19941;31
2022/05/25 14:45:27;;;;;;;;;;;18.20;99.90;;;;;;2603246;54;20678;31
2022/05/25 14:48:11;;;;;;;;;;;18.20;99.90;;;;;;2622073;46;19961;31
2022/05/25 14:50:59;;;;;;;;;;;18.20;99.90;;;;;;2621807;46;20757;31
2022/05/25 14:53:34;;;;;;;;;;;18.20;99.90;;;;;;2603438;54;20013;31
2022/05/25 14:56:11;;;;;;;;;;;18.20;99.90;;;;;;2621793;46;19974;31
2022/05/25 14:58:48;;;;;;;;;;;18.10;99.90;;;;;;2602615;54;19935;31
2022/05/25 15:01:25;;;;;;;;;;;18.10;99.90;;;;;;2617244;46;20028;31
2022/05/25 15:04:02;;;;;;;;;;;18.10;99.90;;;;;;2602514;54;19942;31
2022/05/25 15:06:52;;;;;;;;;;;18.10;99.90;;;;;;2602542;54;19950;31
2022/05/25 15:09:33;;;;;;;;;;;18.10;99.90;;;;;;2621532;46;20349;31
2022/05/25 15:12:08;;;;;;;;;;;18.10;99.90;;;;;;2603145;54;19935;31
2022/05/25 15:20:19;;;;;;;;;;;18.00;99.90;;;;;;2621602;46;20767;31
2022/05/25 15:22:54;;;;;;;;;;;17.90;99.90;;;;;;2621322;46;19934;31
2022/05/25 15:25:48;;;;;;;;;;;18.00;99.90;;;;;;2603192;54;20044;31
2022/05/25 15:28:26;;;;;;;;;;;18.00;99.90;;;;;;2621840;46;19938;31
2022/05/25 15:31:00;;;;;;;;;;;18.00;99.90;;;;;;2621504;46;19934;31
2022/05/25 15:33:36;;;;;;;;;;;18.00;99.90;;;;;;2602498;54;20825;31
2022/05/25 15:36:12;;;;;;;;;;;18.00;99.90;;;;;;2602712;54;20833;31
2022/05/25 15:38:47;;;;;;;;;;;18.00;99.90;;;;;;2603391;54;20777;31
2022/05/25 15:41:24;;;;;;;;;;;18.00;99.90;;;;;;2701731;39;21192;31
2022/05/25 15:43:59;;;;;;;;;;;18.10;99.90;;;;;;2603411;54;20765;31
2022/05/25 15:46:37;;;;;;;;;;;18.10;99.90;;;;;;2603281;54;20735;31
2022/05/25 15:49:12;;;;;;;;;;;18.20;99.90;;;;;;2621824;46;19939;31
2022/05/25 15:51:47;;;;;;;;;;;18.30;99.90;;;;;;2603077;54;20756;31
2022/05/25 15:54:24;;;;;;;;;;;18.30;99.90;;;;;;2602401;54;20781;31
2022/05/25 15:57:03;;;;;;;;;;;18.30;99.90;;;;;;2621602;46;19934;31
2022/05/25 15:59:38;;;;;;;;;;;18.20;99.90;;;;;;2603137;54;20806;31
2022/05/25 16:02:13;;;;;;;;;;;18.20;99.90;;;;;;2603188;54;19957;31
2022/05/25 16:04:50;;;;;;;;;;;18.20;99.90;;;;;;2603143;54;22238;31